sensor_id;sensor_type;location;lat;lon;timestamp;temperature;humidity
25825;DHT22;13658;44.534;18.694;2023-01-31T00:00:52;2.30;99.90
25825;DHT22;13658;44.534;18.694;2023-01-31T00:03:18;2.30;99.90
25825;DHT22;13658;44.534;18.694;2023-01-31T00:05:44;2.30;99.90
25825;DHT22;13658;44.534;18.694;2023-01-31T00:08:10;2.30;99.90
25825;DHT22;13658;44.534;18.694;2023-01-31T00:10:39;2.20;99.90
25825;DHT22;13658;44.534;18.694;2023-01-31T00:13:04;2.20;99.90
25825;DHT22;13658;44.534;18.694;2023-01-31T00:15:30;2.20;99.90
25825;DHT22;13658;44.534;18.694;2023-01-31T00:17:56;2.30;99.90
25825;DHT22;13658;44.534;18.694;2023-01-31T00:20:23;2.30;99.90
25825;DHT22;13658;44.534;18.694;2023-01-31T00:22:49;2.20;99.90
25825;DHT22;13658;44.534;18.694;2023-01-31T00:25:14;2.10;99.90
25825;DHT22;13658;44.534;18.694;2023-01-31T00:27:40;2.10;99.90
25825;DHT22;13658;44.534;18.694;2023-01-31T00:30:07;2.10;99.90
25825;DHT22;13658;44.534;18.694;2023-01-31T00:32:33;2.10;99.90
25825;DHT22;13658;44.534;18.694;2023-01-31T00:34:59;2.20;99.90
25825;DHT22;13658;44.534;18.694;2023-01-31T00:37:26;2.20;99.90
25825;DHT22;13658;44.534;18.694;2023-01-31T00:39:51;2.20;99.90
25825;DHT22;13658;44.534;18.694;2023-01-31T00:42:17;2.20;99.90
25825;DHT22;13658;44.534;18.694;2023-01-31T00:44:43;2.20;99.90
25825;DHT22;13658;44.534;18.694;2023-01-31T00:47:09;2.20;99.90
25825;DHT22;13658;44.534;18.694;2023-01-31T00:49:35;2.10;99.90
25825;DHT22;13658;44.534;18.694;2023-01-31T00:52:01;2.10;99.90
25825;DHT22;13658;44.534;18.694;2023-01-31T00:54:27;2.20;99.90
25825;DHT22;13658;44.534;18.694;2023-01-31T00:56:53;2.10;99.90
25825;DHT22;13658;44.534;18.694;2023-01-31T00:59:19;2.20;99.90
25825;DHT22;13658;44.534;18.694;2023-01-31T01:01:45;2.00;99.90
25825;DHT22;13658;44.534;18.694;2023-01-31T01:04:11;2.10;99.90
25825;DHT22;13658;44.534;18.694;2023-01-31T01:06:38;2.10;99.90
25825;DHT22;13658;44.534;18.694;2023-01-31T01:09:06;2.10;99.90
25825;DHT22;13658;44.534;18.694;2023-01-31T01:11:33;2.00;99.90
25825;DHT22;13658;44.534;18.694;2023-01-31T01:14:00;2.00;99.90
25825;DHT22;13658;44.534;18.694;2023-01-31T01:16:34;2.00;99.90
25825;DHT22;13658;44.534;18.694;2023-01-31T01:19:05;2.00;99.90
25825;DHT22;13658;44.534;18.694;2023-01-31T01:21:32;2.00;99.90
25825;DHT22;13658;44.534;18.694;2023-01-31T01:24:04;2.00;99.90
25825;DHT22;13658;44.534;18.694;2023-01-31T01:26:32;2.00;99.90
25825;DHT22;13658;44.534;18.694;2023-01-31T01:29:00;2.00;99.90
25825;DHT22;13658;44.534;18.694;2023-01-31T01:31:28;2.10;99.90
25825;DHT22;13658;44.534;18.694;2023-01-31T01:34:01;2.00;99.90
25825;DHT22;13658;44.534;18.694;2023-01-31T01:36:28;2.10;99.90
25825;DHT22;13658;44.534;18.694;2023-01-31T01:38:54;2.20;99.90
25825;DHT22;13658;44.534;18.694;2023-01-31T01:41:22;2.20;99.90
25825;DHT22;13658;44.534;18.694;2023-01-31T01:43:51;2.10;99.90
25825;DHT22;13658;44.534;18.694;2023-01-31T01:48:54;2.00;99.90
25825;DHT22;13658;44.534;18.694;2023-01-31T01:51:22;2.00;99.90
25825;DHT22;13658;44.534;18.694;2023-01-31T01:53:54;2.00;99.90
25825;DHT22;13658;44.534;18.694;2023-01-31T01:56:32;1.90;99.90
25825;DHT22;13658;44.534;18.694;2023-01-31T01:59:23;1.90;99.90
25825;DHT22;13658;44.534;18.694;2023-01-31T02:01:54;1.90;99.90
25825;DHT22;13658;44.534;18.694;2023-01-31T02:04:23;1.90;99.90
25825;DHT22;13658;44.534;18.694;2023-01-31T02:06:51;1.90;99.90
25825;DHT22;13658;44.534;18.694;2023-01-31T02:09:47;2.00;99.90
25825;DHT22;13658;44.534;18.694;2023-01-31T02:12:13;1.90;99.90
25825;DHT22;13658;44.534;18.694;2023-01-31T02:14:40;2.00;99.90
25825;DHT22;13658;44.534;18.694;2023-01-31T02:17:15;1.90;99.90
25825;DHT22;13658;44.534;18.694;2023-01-31T02:22:39;2.00;99.90
25825;DHT22;13658;44.534;18.694;2023-01-31T02:40:08;2.00;99.90
25825;DHT22;13658;44.534;18.694;2023-01-31T02:51:14;2.10;99.90
25825;DHT22;13658;44.534;18.694;2023-01-31T02:53:56;2.10;99.90
25825;DHT22;13658;44.534;18.694;2023-01-31T02:56:30;2.20;99.90
25825;DHT22;13658;44.534;18.694;2023-01-31T02:59:05;2.20;99.90
25825;DHT22;13658;44.534;18.694;2023-01-31T03:01:42;2.20;99.90
25825;DHT22;13658;44.534;18.694;2023-01-31T03:04:11;2.00;99.90
25825;DHT22;13658;44.534;18.694;2023-01-31T03:06:58;1.90;99.90
25825;DHT22;13658;44.534;18.694;2023-01-31T03:09:34;1.90;99.90
25825;DHT22;13658;44.534;18.694;2023-01-31T03:14:46;1.80;99.90
25825;DHT22;13658;44.534;18.694;2023-01-31T03:22:39;1.90;99.90
25825;DHT22;13658;44.534;18.694;2023-01-31T03:25:09;1.80;99.90
25825;DHT22;13658;44.534;18.694;2023-01-31T03:27:40;1.80;99.90
25825;DHT22;13658;44.534;18.694;2023-01-31T03:30:11;1.80;99.90
25825;DHT22;13658;44.534;18.694;2023-01-31T03:32:57;1.80;99.90
25825;DHT22;13658;44.534;18.694;2023-01-31T03:35:27;1.80;99.90
25825;DHT22;13658;44.534;18.694;2023-01-31T03:38:07;1.80;99.90
25825;DHT22;13658;44.534;18.694;2023-01-31T03:40:39;1.80;99.90
25825;DHT22;13658;44.534;18.694;2023-01-31T03:43:21;1.80;99.90
25825;DHT22;13658;44.534;18.694;2023-01-31T03:45:57;1.90;99.90
25825;DHT22;13658;44.534;18.694;2023-01-31T03:48:30;2.00;99.90
25825;DHT22;13658;44.534;18.694;2023-01-31T03:51:01;2.00;99.90
25825;DHT22;13658;44.534;18.694;2023-01-31T03:53:31;2.00;99.90
25825;DHT22;13658;44.534;18.694;2023-01-31T03:56:06;2.00;99.90
25825;DHT22;13658;44.534;18.694;2023-01-31T03:58:39;2.00;99.90
25825;DHT22;13658;44.534;18.694;2023-01-31T04:01:09;2.00;99.90
25825;DHT22;13658;44.534;18.694;2023-01-31T04:03:42;2.00;99.90
25825;DHT22;13658;44.534;18.694;2023-01-31T04:06:10;2.00;99.90
25825;DHT22;13658;44.534;18.694;2023-01-31T04:08:37;2.10;99.90
25825;DHT22;13658;44.534;18.694;2023-01-31T04:11:09;2.10;99.90
25825;DHT22;13658;44.534;18.694;2023-01-31T04:13:37;2.10;99.90
25825;DHT22;13658;44.534;18.694;2023-01-31T04:16:03;2.10;99.90
25825;DHT22;13658;44.534;18.694;2023-01-31T04:18:29;2.10;99.90
25825;DHT22;13658;44.534;18.694;2023-01-31T04:20:55;2.20;99.90
25825;DHT22;13658;44.534;18.694;2023-01-31T04:23:21;2.20;99.90
25825;DHT22;13658;44.534;18.694;2023-01-31T04:25:50;2.20;99.90
25825;DHT22;13658;44.534;18.694;2023-01-31T04:28:17;2.30;99.90
25825;DHT22;13658;44.534;18.694;2023-01-31T04:30:43;2.30;99.90
25825;DHT22;13658;44.534;18.694;2023-01-31T04:33:09;2.30;99.90
25825;DHT22;13658;44.534;18.694;2023-01-31T04:35:35;2.30;99.90
25825;DHT22;13658;44.534;18.694;2023-01-31T04:38:04;2.10;99.90
25825;DHT22;13658;44.534;18.694;2023-01-31T04:40:29;2.00;99.90
25825;DHT22;13658;44.534;18.694;2023-01-31T04:42:55;1.90;99.90
25825;DHT22;13658;44.534;18.694;2023-01-31T04:45:21;1.90;99.90
25825;DHT22;13658;44.534;18.694;2023-01-31T04:47:47;1.90;99.90
25825;DHT22;13658;44.534;18.694;2023-01-31T04:50:13;1.90;99.90
25825;DHT22;13658;44.534;18.694;2023-01-31T04:52:39;1.90;99.90
25825;DHT22;13658;44.534;18.694;2023-01-31T04:55:06;2.00;99.90
25825;DHT22;13658;44.534;18.694;2023-01-31T04:57:32;1.90;99.90
25825;DHT22;13658;44.534;18.694;2023-01-31T04:59:58;1.90;99.90
25825;DHT22;13658;44.534;18.694;2023-01-31T05:02:24;1.90;99.90
25825;DHT22;13658;44.534;18.694;2023-01-31T05:04:50;2.00;99.90
25825;DHT22;13658;44.534;18.694;2023-01-31T05:07:16;1.90;99.90
25825;DHT22;13658;44.534;18.694;2023-01-31T05:09:42;1.90;99.90
25825;DHT22;13658;44.534;18.694;2023-01-31T05:12:08;1.80;99.90
25825;DHT22;13658;44.534;18.694;2023-01-31T05:14:34;1.80;99.90
25825;DHT22;13658;44.534;18.694;2023-01-31T05:17:01;1.90;99.90
25825;DHT22;13658;44.534;18.694;2023-01-31T05:19:28;1.80;99.90
25825;DHT22;13658;44.534;18.694;2023-01-31T05:21:54;1.80;99.90
25825;DHT22;13658;44.534;18.694;2023-01-31T05:24:20;1.60;99.90
25825;DHT22;13658;44.534;18.694;2023-01-31T05:26:47;1.70;99.90
25825;DHT22;13658;44.534;18.694;2023-01-31T05:29:15;1.70;99.90
25825;DHT22;13658;44.534;18.694;2023-01-31T05:31:41;1.70;99.90
25825;DHT22;13658;44.534;18.694;2023-01-31T05:34:07;1.70;99.90
25825;DHT22;13658;44.534;18.694;2023-01-31T05:36:35;1.80;99.90
25825;DHT22;13658;44.534;18.694;2023-01-31T05:39:01;1.80;99.90
25825;DHT22;13658;44.534;18.694;2023-01-31T05:41:27;1.80;99.90
25825;DHT22;13658;44.534;18.694;2023-01-31T05:43:52;1.70;99.90
25825;DHT22;13658;44.534;18.694;2023-01-31T05:46:18;1.70;99.90
25825;DHT22;13658;44.534;18.694;2023-01-31T05:48:44;1.80;99.90
25825;DHT22;13658;44.534;18.694;2023-01-31T05:51:10;1.80;99.90
25825;DHT22;13658;44.534;18.694;2023-01-31T05:53:36;1.90;99.90
25825;DHT22;13658;44.534;18.694;2023-01-31T05:56:02;1.90;99.90
25825;DHT22;13658;44.534;18.694;2023-01-31T05:58:28;1.90;99.90
25825;DHT22;13658;44.534;18.694;2023-01-31T06:00:55;1.90;99.90
25825;DHT22;13658;44.534;18.694;2023-01-31T06:03:21;1.80;99.90
25825;DHT22;13658;44.534;18.694;2023-01-31T06:05:47;1.80;99.90
25825;DHT22;13658;44.534;18.694;2023-01-31T06:08:13;1.90;99.90
25825;DHT22;13658;44.534;18.694;2023-01-31T06:10:39;1.80;99.90
25825;DHT22;13658;44.534;18.694;2023-01-31T06:13:05;1.80;99.90
25825;DHT22;13658;44.534;18.694;2023-01-31T06:15:32;1.70;99.90
25825;DHT22;13658;44.534;18.694;2023-01-31T06:17:58;1.70;99.90
25825;DHT22;13658;44.534;18.694;2023-01-31T06:20:25;1.70;99.90
25825;DHT22;13658;44.534;18.694;2023-01-31T06:22:51;1.70;99.90
25825;DHT22;13658;44.534;18.694;2023-01-31T06:25:17;1.70;99.90
25825;DHT22;13658;44.534;18.694;2023-01-31T06:27:43;1.90;99.90
25825;DHT22;13658;44.534;18.694;2023-01-31T06:30:09;1.90;99.90
25825;DHT22;13658;44.534;18.694;2023-01-31T06:32:36;1.90;99.90
25825;DHT22;13658;44.534;18.694;2023-01-31T06:35:02;1.90;99.90
25825;DHT22;13658;44.534;18.694;2023-01-31T06:37:28;1.90;99.90
25825;DHT22;13658;44.534;18.694;2023-01-31T06:39:55;1.90;99.90
25825;DHT22;13658;44.534;18.694;2023-01-31T06:42:21;2.00;99.90
25825;DHT22;13658;44.534;18.694;2023-01-31T06:44:47;2.00;99.90
25825;DHT22;13658;44.534;18.694;2023-01-31T06:47:13;2.00;99.90
25825;DHT22;13658;44.534;18.694;2023-01-31T06:49:39;2.00;99.90
25825;DHT22;13658;44.534;18.694;2023-01-31T06:52:05;2.10;99.90
25825;DHT22;13658;44.534;18.694;2023-01-31T06:54:31;2.00;99.90
25825;DHT22;13658;44.534;18.694;2023-01-31T06:56:57;2.00;99.90
25825;DHT22;13658;44.534;18.694;2023-01-31T06:59:23;1.90;99.90
25825;DHT22;13658;44.534;18.694;2023-01-31T07:01:49;1.90;99.90
25825;DHT22;13658;44.534;18.694;2023-01-31T07:04:15;1.80;99.90
25825;DHT22;13658;44.534;18.694;2023-01-31T07:06:41;1.90;99.90
25825;DHT22;13658;44.534;18.694;2023-01-31T07:09:07;1.90;99.90
25825;DHT22;13658;44.534;18.694;2023-01-31T07:11:33;1.80;99.90
25825;DHT22;13658;44.534;18.694;2023-01-31T07:13:59;1.70;99.90
25825;DHT22;13658;44.534;18.694;2023-01-31T07:16:25;1.80;99.90
25825;DHT22;13658;44.534;18.694;2023-01-31T07:18:52;1.80;99.90
25825;DHT22;13658;44.534;18.694;2023-01-31T07:21:18;1.90;99.90
25825;DHT22;13658;44.534;18.694;2023-01-31T07:23:44;2.00;99.90
25825;DHT22;13658;44.534;18.694;2023-01-31T07:26:11;2.00;99.90
25825;DHT22;13658;44.534;18.694;2023-01-31T07:28:37;2.10;99.90
25825;DHT22;13658;44.534;18.694;2023-01-31T07:31:04;2.20;99.90
25825;DHT22;13658;44.534;18.694;2023-01-31T07:33:32;2.30;99.90
25825;DHT22;13658;44.534;18.694;2023-01-31T07:35:59;2.30;99.90
25825;DHT22;13658;44.534;18.694;2023-01-31T07:38:25;2.30;99.90
25825;DHT22;13658;44.534;18.694;2023-01-31T07:40:51;2.30;99.90
25825;DHT22;13658;44.534;18.694;2023-01-31T07:43:17;2.30;99.90
25825;DHT22;13658;44.534;18.694;2023-01-31T07:45:43;2.30;99.90
25825;DHT22;13658;44.534;18.694;2023-01-31T07:48:09;2.20;99.90
25825;DHT22;13658;44.534;18.694;2023-01-31T07:50:35;2.30;99.90
25825;DHT22;13658;44.534;18.694;2023-01-31T07:53:01;2.30;99.90
25825;DHT22;13658;44.534;18.694;2023-01-31T07:55:27;2.30;99.90
25825;DHT22;13658;44.534;18.694;2023-01-31T07:57:53;2.50;99.90
25825;DHT22;13658;44.534;18.694;2023-01-31T08:00:19;2.70;99.90
25825;DHT22;13658;44.534;18.694;2023-01-31T08:03:03;2.80;99.90
25825;DHT22;13658;44.534;18.694;2023-01-31T08:05:48;2.90;99.90
25825;DHT22;13658;44.534;18.694;2023-01-31T08:08:14;3.20;99.90
25825;DHT22;13658;44.534;18.694;2023-01-31T08:10:40;3.60;99.90
25825;DHT22;13658;44.534;18.694;2023-01-31T08:13:06;3.70;99.90
25825;DHT22;13658;44.534;18.694;2023-01-31T08:15:32;3.80;99.90
25825;DHT22;13658;44.534;18.694;2023-01-31T08:17:58;3.90;99.90
25825;DHT22;13658;44.534;18.694;2023-01-31T08:20:24;4.10;99.90
25825;DHT22;13658;44.534;18.694;2023-01-31T08:22:50;4.10;99.90
25825;DHT22;13658;44.534;18.694;2023-01-31T08:25:16;4.20;99.90
25825;DHT22;13658;44.534;18.694;2023-01-31T08:27:42;4.10;99.90
25825;DHT22;13658;44.534;18.694;2023-01-31T08:30:08;4.30;99.90
25825;DHT22;13658;44.534;18.694;2023-01-31T08:32:35;4.60;99.90
25825;DHT22;13658;44.534;18.694;2023-01-31T08:35:00;4.50;99.90
25825;DHT22;13658;44.534;18.694;2023-01-31T08:37:26;4.20;99.90
25825;DHT22;13658;44.534;18.694;2023-01-31T08:39:52;4.20;99.90
25825;DHT22;13658;44.534;18.694;2023-01-31T08:42:18;4.30;99.90
25825;DHT22;13658;44.534;18.694;2023-01-31T08:44:44;4.20;99.90
25825;DHT22;13658;44.534;18.694;2023-01-31T08:47:10;4.10;99.90
25825;DHT22;13658;44.534;18.694;2023-01-31T08:49:36;4.10;99.90
25825;DHT22;13658;44.534;18.694;2023-01-31T08:52:02;4.00;99.90
25825;DHT22;13658;44.534;18.694;2023-01-31T08:54:28;3.90;99.90
25825;DHT22;13658;44.534;18.694;2023-01-31T08:56:54;3.90;99.90
25825;DHT22;13658;44.534;18.694;2023-01-31T08:59:20;3.90;99.90
25825;DHT22;13658;44.534;18.694;2023-01-31T09:01:46;3.70;99.90
25825;DHT22;13658;44.534;18.694;2023-01-31T09:04:12;3.70;99.90
25825;DHT22;13658;44.534;18.694;2023-01-31T09:06:38;3.70;99.90
25825;DHT22;13658;44.534;18.694;2023-01-31T09:09:04;3.70;99.90
25825;DHT22;13658;44.534;18.694;2023-01-31T09:11:30;3.70;99.90
25825;DHT22;13658;44.534;18.694;2023-01-31T09:13:57;3.60;99.90
25825;DHT22;13658;44.534;18.694;2023-01-31T09:16:23;3.50;99.90
25825;DHT22;13658;44.534;18.694;2023-01-31T09:18:49;3.50;99.90
25825;DHT22;13658;44.534;18.694;2023-01-31T09:21:17;3.60;99.90
25825;DHT22;13658;44.534;18.694;2023-01-31T09:23:45;3.60;99.90
25825;DHT22;13658;44.534;18.694;2023-01-31T09:26:12;3.60;99.90
25825;DHT22;13658;44.534;18.694;2023-01-31T09:28:38;3.50;99.90
25825;DHT22;13658;44.534;18.694;2023-01-31T09:31:12;3.50;99.90
25825;DHT22;13658;44.534;18.694;2023-01-31T09:33:39;3.60;99.90
25825;DHT22;13658;44.534;18.694;2023-01-31T09:36:09;3.60;99.90
25825;DHT22;13658;44.534;18.694;2023-01-31T09:38:36;3.70;99.90
25825;DHT22;13658;44.534;18.694;2023-01-31T09:44:01;3.70;99.90
25825;DHT22;13658;44.534;18.694;2023-01-31T09:46:34;3.70;99.90
25825;DHT22;13658;44.534;18.694;2023-01-31T09:49:02;3.80;99.90
25825;DHT22;13658;44.534;18.694;2023-01-31T09:51:32;4.20;99.90
25825;DHT22;13658;44.534;18.694;2023-01-31T09:54:00;4.30;99.90
25825;DHT22;13658;44.534;18.694;2023-01-31T09:56:58;4.50;99.90
25825;DHT22;13658;44.534;18.694;2023-01-31T10:05:43;4.70;99.90
25825;DHT22;13658;44.534;18.694;2023-01-31T10:08:17;4.80;99.90
25825;DHT22;13658;44.534;18.694;2023-01-31T10:10:51;4.80;99.90
25825;DHT22;13658;44.534;18.694;2023-01-31T10:13:38;4.90;99.90
25825;DHT22;13658;44.534;18.694;2023-01-31T10:16:29;4.80;99.90
25825;DHT22;13658;44.534;18.694;2023-01-31T10:19:23;4.90;99.90
25825;DHT22;13658;44.534;18.694;2023-01-31T10:21:58;4.90;99.90
25825;DHT22;13658;44.534;18.694;2023-01-31T10:27:18;5.10;99.90
25825;DHT22;13658;44.534;18.694;2023-01-31T10:29:51;5.20;99.90
25825;DHT22;13658;44.534;18.694;2023-01-31T10:32:23;5.30;99.90
25825;DHT22;13658;44.534;18.694;2023-01-31T10:35:15;5.50;99.90
25825;DHT22;13658;44.534;18.694;2023-01-31T10:37:46;5.60;99.90
25825;DHT22;13658;44.534;18.694;2023-01-31T10:40:20;5.70;99.90
25825;DHT22;13658;44.534;18.694;2023-01-31T10:42:54;5.60;99.90
25825;DHT22;13658;44.534;18.694;2023-01-31T10:45:25;5.60;99.90
25825;DHT22;13658;44.534;18.694;2023-01-31T10:48:17;5.60;99.90
25825;DHT22;13658;44.534;18.694;2023-01-31T10:50:47;5.70;99.90
25825;DHT22;13658;44.534;18.694;2023-01-31T10:58:37;6.20;99.90
25825;DHT22;13658;44.534;18.694;2023-01-31T11:01:05;6.10;99.90
25825;DHT22;13658;44.534;18.694;2023-01-31T11:03:34;6.00;99.90
25825;DHT22;13658;44.534;18.694;2023-01-31T11:05:59;5.80;99.90
25825;DHT22;13658;44.534;18.694;2023-01-31T11:11:09;5.90;99.90
25825;DHT22;13658;44.534;18.694;2023-01-31T11:13:36;5.90;99.90
25825;DHT22;13658;44.534;18.694;2023-01-31T11:16:06;5.80;99.90
25825;DHT22;13658;44.534;18.694;2023-01-31T11:18:53;5.90;99.90
25825;DHT22;13658;44.534;18.694;2023-01-31T11:21:23;5.70;99.90
25825;DHT22;13658;44.534;18.694;2023-01-31T11:23:51;5.60;99.90
25825;DHT22;13658;44.534;18.694;2023-01-31T11:26:29;5.50;99.90
25825;DHT22;13658;44.534;18.694;2023-01-31T11:28:56;5.40;99.90
25825;DHT22;13658;44.534;18.694;2023-01-31T11:31:31;5.30;99.90
25825;DHT22;13658;44.534;18.694;2023-01-31T11:34:01;5.30;99.90
25825;DHT22;13658;44.534;18.694;2023-01-31T11:36:41;5.30;99.90
25825;DHT22;13658;44.534;18.694;2023-01-31T11:39:30;5.40;99.90
25825;DHT22;13658;44.534;18.694;2023-01-31T11:42:03;5.40;99.90
25825;DHT22;13658;44.534;18.694;2023-01-31T11:44:29;5.40;99.90
25825;DHT22;13658;44.534;18.694;2023-01-31T11:46:57;5.40;99.90
25825;DHT22;13658;44.534;18.694;2023-01-31T11:49:53;5.40;99.90
25825;DHT22;13658;44.534;18.694;2023-01-31T11:52:21;5.40;99.90
25825;DHT22;13658;44.534;18.694;2023-01-31T11:54:54;5.40;99.90
25825;DHT22;13658;44.534;18.694;2023-01-31T11:57:24;5.50;99.90
25825;DHT22;13658;44.534;18.694;2023-01-31T11:59:54;5.60;99.90
25825;DHT22;13658;44.534;18.694;2023-01-31T12:02:40;5.50;99.90
25825;DHT22;13658;44.534;18.694;2023-01-31T12:05:12;5.50;99.90
25825;DHT22;13658;44.534;18.694;2023-01-31T12:07:49;5.60;99.90
25825;DHT22;13658;44.534;18.694;2023-01-31T12:12:59;5.70;99.90
25825;DHT22;13658;44.534;18.694;2023-01-31T12:15:25;5.70;99.90
25825;DHT22;13658;44.534;18.694;2023-01-31T12:17:52;5.60;99.90
25825;DHT22;13658;44.534;18.694;2023-01-31T12:20:32;5.40;99.90
25825;DHT22;13658;44.534;18.694;2023-01-31T12:23:15;5.40;99.90
25825;DHT22;13658;44.534;18.694;2023-01-31T12:28:31;5.20;99.90
25825;DHT22;13658;44.534;18.694;2023-01-31T12:36:23;5.20;99.90
25825;DHT22;13658;44.534;18.694;2023-01-31T12:44:44;5.30;99.90
25825;DHT22;13658;44.534;18.694;2023-01-31T12:47:44;5.20;99.90
25825;DHT22;13658;44.534;18.694;2023-01-31T12:50:27;5.20;99.90
25825;DHT22;13658;44.534;18.694;2023-01-31T12:55:49;5.40;99.90
25825;DHT22;13658;44.534;18.694;2023-01-31T12:58:40;5.40;99.90
25825;DHT22;13658;44.534;18.694;2023-01-31T13:01:33;5.30;99.90
25825;DHT22;13658;44.534;18.694;2023-01-31T13:06:52;5.50;99.90
25825;DHT22;13658;44.534;18.694;2023-01-31T13:09:27;5.50;99.90
25825;DHT22;13658;44.534;18.694;2023-01-31T13:12:17;5.50;99.90
25825;DHT22;13658;44.534;18.694;2023-01-31T13:14:51;5.50;99.90
25825;DHT22;13658;44.534;18.694;2023-01-31T13:17:27;5.60;99.90
25825;DHT22;13658;44.534;18.694;2023-01-31T13:22:49;5.40;99.90
25825;DHT22;13658;44.534;18.694;2023-01-31T13:25:24;5.30;99.90
25825;DHT22;13658;44.534;18.694;2023-01-31T13:28:15;5.20;99.90
25825;DHT22;13658;44.534;18.694;2023-01-31T13:38:47;5.20;99.90
25825;DHT22;13658;44.534;18.694;2023-01-31T13:43:47;4.90;99.90
25825;DHT22;13658;44.534;18.694;2023-01-31T13:46:17;4.80;99.90
25825;DHT22;13658;44.534;18.694;2023-01-31T13:49:05;4.80;99.90
25825;DHT22;13658;44.534;18.694;2023-01-31T13:52:02;4.90;99.90
25825;DHT22;13658;44.534;18.694;2023-01-31T13:54:35;4.90;99.90
25825;DHT22;13658;44.534;18.694;2023-01-31T13:57:02;4.30;99.90
25825;DHT22;13658;44.534;18.694;2023-01-31T13:59:35;3.80;99.90
25825;DHT22;13658;44.534;18.694;2023-01-31T14:02:16;3.50;99.90
25825;DHT22;13658;44.534;18.694;2023-01-31T14:04:43;3.10;99.90
25825;DHT22;13658;44.534;18.694;2023-01-31T14:14:50;2.80;99.90
25825;DHT22;13658;44.534;18.694;2023-01-31T14:22:32;2.70;99.90
25825;DHT22;13658;44.534;18.694;2023-01-31T14:28:00;2.70;99.90
25825;DHT22;13658;44.534;18.694;2023-01-31T14:30:38;2.60;99.90
25825;DHT22;13658;44.534;18.694;2023-01-31T14:38:21;2.80;99.90
25825;DHT22;13658;44.534;18.694;2023-01-31T14:57:24;3.10;99.90
25825;DHT22;13658;44.534;18.694;2023-01-31T15:00:02;3.00;99.90
25825;DHT22;13658;44.534;18.694;2023-01-31T15:05:22;3.10;99.90
25825;DHT22;13658;44.534;18.694;2023-01-31T15:07:59;3.20;99.90
25825;DHT22;13658;44.534;18.694;2023-01-31T15:18:46;3.30;99.90
25825;DHT22;13658;44.534;18.694;2023-01-31T15:21:23;3.20;99.90
25825;DHT22;13658;44.534;18.694;2023-01-31T15:23:51;3.30;99.90
25825;DHT22;13658;44.534;18.694;2023-01-31T15:26:18;3.30;99.90
25825;DHT22;13658;44.534;18.694;2023-01-31T15:28:45;3.30;99.90
25825;DHT22;13658;44.534;18.694;2023-01-31T15:31:40;3.30;99.90
25825;DHT22;13658;44.534;18.694;2023-01-31T15:34:38;3.30;99.90
25825;DHT22;13658;44.534;18.694;2023-01-31T15:37:14;3.30;99.90
25825;DHT22;13658;44.534;18.694;2023-01-31T15:39:52;3.30;99.90
25825;DHT22;13658;44.534;18.694;2023-01-31T15:42:25;3.30;99.90
25825;DHT22;13658;44.534;18.694;2023-01-31T15:45:12;3.20;99.90
25825;DHT22;13658;44.534;18.694;2023-01-31T15:47:38;3.30;99.90
25825;DHT22;13658;44.534;18.694;2023-01-31T15:50:19;3.30;99.90
25825;DHT22;13658;44.534;18.694;2023-01-31T15:52:45;3.30;99.90
25825;DHT22;13658;44.534;18.694;2023-01-31T15:55:14;3.20;99.90
25825;DHT22;13658;44.534;18.694;2023-01-31T15:57:41;3.20;99.90
25825;DHT22;13658;44.534;18.694;2023-01-31T16:00:32;3.30;99.90
25825;DHT22;13658;44.534;18.694;2023-01-31T16:02:59;3.30;99.90
25825;DHT22;13658;44.534;18.694;2023-01-31T16:05:34;3.20;99.90
25825;DHT22;13658;44.534;18.694;2023-01-31T16:08:01;3.20;99.90
25825;DHT22;13658;44.534;18.694;2023-01-31T16:10:29;3.20;99.90
25825;DHT22;13658;44.534;18.694;2023-01-31T16:12:57;3.20;99.90
25825;DHT22;13658;44.534;18.694;2023-01-31T16:15:29;3.20;99.90
25825;DHT22;13658;44.534;18.694;2023-01-31T16:17:59;3.10;99.90
25825;DHT22;13658;44.534;18.694;2023-01-31T16:28:50;3.20;99.90
25825;DHT22;13658;44.534;18.694;2023-01-31T16:31:20;3.20;99.90
25825;DHT22;13658;44.534;18.694;2023-01-31T16:33:52;3.10;99.90
25825;DHT22;13658;44.534;18.694;2023-01-31T16:39:00;3.00;99.90
25825;DHT22;13658;44.534;18.694;2023-01-31T16:41:46;3.00;99.90
25825;DHT22;13658;44.534;18.694;2023-01-31T16:44:22;3.00;99.90
25825;DHT22;13658;44.534;18.694;2023-01-31T16:46:52;3.00;99.90
25825;DHT22;13658;44.534;18.694;2023-01-31T16:49:29;3.10;99.90
25825;DHT22;13658;44.534;18.694;2023-01-31T16:52:08;3.10;99.90
25825;DHT22;13658;44.534;18.694;2023-01-31T16:54:49;3.10;99.90
25825;DHT22;13658;44.534;18.694;2023-01-31T16:57:38;3.20;99.90
25825;DHT22;13658;44.534;18.694;2023-01-31T17:02:57;3.20;99.90
25825;DHT22;13658;44.534;18.694;2023-01-31T17:05:26;3.30;99.90
25825;DHT22;13658;44.534;18.694;2023-01-31T17:07:58;3.20;99.90
25825;DHT22;13658;44.534;18.694;2023-01-31T17:10:33;3.10;99.90
25825;DHT22;13658;44.534;18.694;2023-01-31T17:13:21;3.00;99.90
25825;DHT22;13658;44.534;18.694;2023-01-31T17:15:48;2.90;99.90
25825;DHT22;13658;44.534;18.694;2023-01-31T17:18:14;2.80;99.90
25825;DHT22;13658;44.534;18.694;2023-01-31T17:20:43;2.70;99.90
25825;DHT22;13658;44.534;18.694;2023-01-31T17:23:11;2.70;99.90
25825;DHT22;13658;44.534;18.694;2023-01-31T17:25:37;2.60;99.90
25825;DHT22;13658;44.534;18.694;2023-01-31T17:28:04;2.50;99.90
25825;DHT22;13658;44.534;18.694;2023-01-31T17:30:31;2.50;99.90
25825;DHT22;13658;44.534;18.694;2023-01-31T17:32:58;2.40;99.90
25825;DHT22;13658;44.534;18.694;2023-01-31T17:35:34;2.40;99.90
25825;DHT22;13658;44.534;18.694;2023-01-31T17:38:01;2.40;99.90
25825;DHT22;13658;44.534;18.694;2023-01-31T17:40:27;2.40;99.90
25825;DHT22;13658;44.534;18.694;2023-01-31T17:42:56;2.40;99.90
25825;DHT22;13658;44.534;18.694;2023-01-31T17:45:23;2.50;99.90
25825;DHT22;13658;44.534;18.694;2023-01-31T17:47:49;2.50;99.90
25825;DHT22;13658;44.534;18.694;2023-01-31T17:50:24;2.50;99.90
25825;DHT22;13658;44.534;18.694;2023-01-31T17:52:51;2.50;99.90
25825;DHT22;13658;44.534;18.694;2023-01-31T17:55:17;2.40;99.90
25825;DHT22;13658;44.534;18.694;2023-01-31T17:57:45;2.40;99.90
25825;DHT22;13658;44.534;18.694;2023-01-31T18:00:17;2.40;99.90
25825;DHT22;13658;44.534;18.694;2023-01-31T18:02:43;2.30;99.90
25825;DHT22;13658;44.534;18.694;2023-01-31T18:05:11;2.40;99.90
25825;DHT22;13658;44.534;18.694;2023-01-31T18:07:38;2.30;99.90
25825;DHT22;13658;44.534;18.694;2023-01-31T18:10:05;2.30;99.90
25825;DHT22;13658;44.534;18.694;2023-01-31T18:12:31;2.30;99.90
25825;DHT22;13658;44.534;18.694;2023-01-31T18:14:59;2.30;99.90
25825;DHT22;13658;44.534;18.694;2023-01-31T18:17:25;2.20;99.90
25825;DHT22;13658;44.534;18.694;2023-01-31T18:19:51;2.20;99.90
25825;DHT22;13658;44.534;18.694;2023-01-31T18:22:17;2.10;99.90
25825;DHT22;13658;44.534;18.694;2023-01-31T18:24:43;2.10;99.90